AZU1809 SBGR-SBSG
Flight info
| Callsign | AZU1809 |
|---|---|
| Flight time | N/A |
| Altitude | 37000 |
| Route | VUMEV UZ14 ENVOG UZ1 LODOT UZ72 TOGUN |
| Aircraft | A339/H-SADE1E2E3GHIJ3J5M1P2RWXY/LB2D1 |
Departure
| Time | 2026-05-03 21:05 |
|---|---|
| Airport | São Paulo/Guarulhos–Governor André Franco Montoro International Airport (SBGR) |
Arrival
| Time | N/A |
|---|---|
| Airport | Rio Grande do Norte/São Gonçalo do Amarante–Governador Aluízio Alves International Airport (SBSG) |
| Time | Latitude | Longitude | Altitude | Speed | Heading |
|---|---|---|---|---|---|
| 2026-05-03 20:15 | -23.42694 | -46.47430 | 2479 ft | 0 kts | 72° |
| 2026-05-03 20:54 | -23.42699 | -46.47448 | 2474 ft | 2 kts | 72° |
| 2026-05-03 20:54 | -23.42704 | -46.47464 | 2475 ft | 2 kts | 72° |
| 2026-05-03 20:55 | -23.42708 | -46.47479 | 2476 ft | 2 kts | 72° |
| 2026-05-03 20:55 | -23.42713 | -46.47494 | 2476 ft | 2 kts | 75° |
| 2026-05-03 20:55 | -23.42717 | -46.47510 | 2474 ft | 2 kts | 99° |
| 2026-05-03 20:55 | -23.42716 | -46.47528 | 2474 ft | 2 kts | 137° |
| 2026-05-03 20:56 | -23.42713 | -46.47535 | 2474 ft | 0 kts | 168° |
| 2026-05-03 20:58 | -23.42721 | -46.47533 | 2475 ft | 2 kts | 167° |
| 2026-05-03 20:58 | -23.42743 | -46.47526 | 2476 ft | 4 kts | 164° |
| 2026-05-03 20:58 | -23.42779 | -46.47515 | 2476 ft | 6 kts | 164° |
| 2026-05-03 20:59 | -23.42825 | -46.47501 | 2476 ft | 8 kts | 164° |
| 2026-05-03 20:59 | -23.42879 | -46.47485 | 2475 ft | 7 kts | 168° |
| 2026-05-03 20:59 | -23.42930 | -46.47499 | 2479 ft | 8 kts | 211° |
| 2026-05-03 20:59 | -23.42952 | -46.47552 | 2479 ft | 8 kts | 248° |
| 2026-05-03 21:00 | -23.42976 | -46.47615 | 2476 ft | 10 kts | 249° |
| 2026-05-03 21:00 | -23.42992 | -46.47665 | 2477 ft | 11 kts | 250° |
| 2026-05-03 21:00 | -23.43024 | -46.47776 | 2479 ft | 12 kts | 255° |
| 2026-05-03 21:00 | -23.43046 | -46.47871 | 2474 ft | 13 kts | 255° |
| 2026-05-03 21:01 | -23.43071 | -46.47972 | 2478 ft | 14 kts | 255° |
| 2026-05-03 21:01 | -23.43100 | -46.48078 | 2477 ft | 15 kts | 251° |
| 2026-05-03 21:01 | -23.43134 | -46.48190 | 2478 ft | 16 kts | 253° |
| 2026-05-03 21:01 | -23.43165 | -46.48307 | 2476 ft | 16 kts | 254° |
| 2026-05-03 21:02 | -23.43232 | -46.48377 | 2477 ft | 14 kts | 178° |
| 2026-05-03 21:02 | -23.43318 | -46.48348 | 2476 ft | 12 kts | 150° |
| 2026-05-03 21:02 | -23.43393 | -46.48298 | 2477 ft | 13 kts | 134° |
| 2026-05-03 21:02 | -23.43398 | -46.48232 | 2480 ft | 0 kts | 71° |
| 2026-05-03 21:04 | -23.43392 | -46.48215 | 2477 ft | 21 kts | 71° |
| 2026-05-03 21:04 | -23.43264 | -46.47733 | 2475 ft | 110 kts | 75° |
| 2026-05-03 21:05 | -23.42974 | -46.46667 | 2498 ft | 178 kts | 73° |
| 2026-05-03 21:05 | -23.42619 | -46.45294 | 3114 ft | 189 kts | 74° |
| 2026-05-03 21:05 | -23.42255 | -46.43967 | 4142 ft | 184 kts | 72° |
| 2026-05-03 21:05 | -23.41844 | -46.42557 | 4783 ft | 203 kts | 72° |
| 2026-05-03 21:06 | -23.41396 | -46.41048 | 5291 ft | 222 kts | 72° |
| 2026-05-03 21:06 | -23.40898 | -46.39375 | 5714 ft | 243 kts | 72° |
| 2026-05-03 21:06 | -23.40357 | -46.37558 | 6060 ft | 263 kts | 72° |
| 2026-05-03 21:06 | -23.39637 | -46.35656 | 6431 ft | 278 kts | 62° |
| 2026-05-03 21:07 | -23.38609 | -46.33869 | 7216 ft | 280 kts | 56° |
| 2026-05-03 21:07 | -23.37544 | -46.32079 | 7981 ft | 283 kts | 57° |
| 2026-05-03 21:07 | -23.36484 | -46.30260 | 8728 ft | 286 kts | 57° |
| 2026-05-03 21:07 | -23.35419 | -46.28418 | 9470 ft | 289 kts | 57° |
| 2026-05-03 21:08 | -23.34341 | -46.26552 | 10205 ft | 293 kts | 57° |
| 2026-05-03 21:08 | -23.33236 | -46.24642 | 10502 ft | 313 kts | 57° |
| 2026-05-03 21:08 | -23.32036 | -46.22570 | 10711 ft | 334 kts | 57° |
| 2026-05-03 21:08 | -23.30774 | -46.20391 | 11178 ft | 344 kts | 57° |
| 2026-05-03 21:09 | -23.29492 | -46.18180 | 11849 ft | 347 kts | 57° |
| 2026-05-03 21:09 | -23.28198 | -46.15950 | 12495 ft | 350 kts | 57° |
| 2026-05-03 21:09 | -23.26891 | -46.13700 | 13130 ft | 354 kts | 57° |
| 2026-05-03 21:09 | -23.25573 | -46.11431 | 13758 ft | 357 kts | 57° |
| 2026-05-03 21:10 | -23.24241 | -46.09138 | 14380 ft | 360 kts | 57° |
| 2026-05-03 21:10 | -23.22896 | -46.06831 | 14986 ft | 363 kts | 57° |
| 2026-05-03 21:10 | -23.21288 | -46.04755 | 15513 ft | 366 kts | 41° |
| 2026-05-03 21:10 | -23.19179 | -46.03207 | 16115 ft | 368 kts | 26° |
| 2026-05-03 21:11 | -23.16770 | -46.02225 | 16653 ft | 371 kts | 18° |
| 2026-05-03 21:11 | -23.14316 | -46.01316 | 17190 ft | 374 kts | 18° |
| 2026-05-03 21:11 | -23.11784 | -46.00585 | 17728 ft | 377 kts | 10° |
| 2026-05-03 21:11 | -23.09175 | -46.00213 | 18252 ft | 380 kts | 5° |
| 2026-05-03 21:12 | -23.06530 | -45.99915 | 18779 ft | 383 kts | 6° |
| 2026-05-03 21:12 | -23.03867 | -45.99599 | 19305 ft | 386 kts | 6° |
| 2026-05-03 21:12 | -23.01186 | -45.99274 | 19834 ft | 389 kts | 6° |
| 2026-05-03 21:12 | -22.98479 | -45.98944 | 20329 ft | 393 kts | 6° |
| 2026-05-03 21:13 | -22.95749 | -45.98610 | 20802 ft | 397 kts | 6° |
| 2026-05-03 21:13 | -22.93025 | -45.98262 | 21304 ft | 400 kts | 7° |
| 2026-05-03 21:13 | -22.90281 | -45.97740 | 21846 ft | 401 kts | 13° |
| 2026-05-03 21:13 | -22.87631 | -45.96793 | 22455 ft | 401 kts | 22° |
| 2026-05-03 21:14 | -22.85122 | -45.95503 | 23081 ft | 399 kts | 27° |
| 2026-05-03 21:14 | -22.83139 | -45.94291 | 23587 ft | 397 kts | 30° |
| 2026-05-03 21:14 | -22.80789 | -45.92734 | 24206 ft | 395 kts | 31° |
| 2026-05-03 21:14 | -22.78524 | -45.91121 | 25150 ft | 383 kts | 34° |
| 2026-05-03 21:15 | -22.76376 | -45.89493 | 26043 ft | 371 kts | 36° |
| 2026-05-03 21:15 | -22.74364 | -45.87813 | 26908 ft | 360 kts | 39° |
| 2026-05-03 21:15 | -22.74019 | -45.87501 | 27057 ft | 358 kts | 40° |
| 2026-05-03 21:15 | -22.73315 | -45.86843 | 27354 ft | 354 kts | 41° |
| 2026-05-03 21:16 | -22.71643 | -45.84946 | 28121 ft | 344 kts | 52° |
| 2026-05-03 21:16 | -22.70400 | -45.82782 | 28846 ft | 334 kts | 64° |
| 2026-05-03 21:16 | -22.69672 | -45.80437 | 29511 ft | 325 kts | 79° |
| 2026-05-03 21:16 | -22.69497 | -45.78044 | 30176 ft | 314 kts | 91° |
| 2026-05-03 21:17 | -22.69707 | -45.75727 | 30755 ft | 306 kts | 101° |
| 2026-05-03 21:17 | -22.70008 | -45.74252 | 31106 ft | 300 kts | 105° |
| 2026-05-03 21:17 | -22.70819 | -45.71367 | 31383 ft | 306 kts | 109° |
| 2026-05-03 21:17 | -22.71580 | -45.69143 | 31254 ft | 322 kts | 112° |
| 2026-05-03 21:18 | -22.72499 | -45.66917 | 31219 ft | 335 kts | 116° |
| 2026-05-03 21:18 | -22.73566 | -45.64615 | 31185 ft | 349 kts | 118° |
| 2026-05-03 21:18 | -22.74776 | -45.62280 | 31178 ft | 362 kts | 121° |
| 2026-05-03 21:18 | -22.76214 | -45.59992 | 31178 ft | 374 kts | 127° |
| 2026-05-03 21:19 | -22.77874 | -45.57759 | 31174 ft | 386 kts | 130° |
| 2026-05-03 21:19 | -22.79683 | -45.55551 | 31143 ft | 399 kts | 136° |
| 2026-05-03 21:19 | -22.81926 | -45.53715 | 31108 ft | 411 kts | 153° |
| 2026-05-03 21:19 | -22.84647 | -45.52681 | 31173 ft | 421 kts | 168° |
| 2026-05-03 21:20 | -22.90607 | -45.52054 | 31326 ft | 440 kts | 179° |